sensor_id;sensor_type;location;lat;lon;timestamp;pressure;altitude;pressure_sealevel;temperature;humidity
84492;BME280;74718;40.778;21.400;2023-12-20T00:00:57;94313.59;;;0.51;72.36
84492;BME280;74718;40.778;21.400;2023-12-20T00:03:23;94313.48;;;0.57;72.29
84492;BME280;74718;40.778;21.400;2023-12-20T00:05:49;94307.88;;;0.64;72.17
84492;BME280;74718;40.778;21.400;2023-12-20T00:08:15;94300.65;;;0.65;71.87
84492;BME280;74718;40.778;21.400;2023-12-20T00:10:40;94298.20;;;0.66;71.66
84492;BME280;74718;40.778;21.400;2023-12-20T00:13:06;94293.67;;;0.68;71.63
84492;BME280;74718;40.778;21.400;2023-12-20T00:15:33;94289.47;;;0.69;71.68
84492;BME280;74718;40.778;21.400;2023-12-20T00:17:59;94286.04;;;0.69;71.49
84492;BME280;74718;40.778;21.400;2023-12-20T00:20:24;94283.29;;;0.71;71.56
84492;BME280;74718;40.778;21.400;2023-12-20T00:22:49;94279.00;;;0.72;71.59
84492;BME280;74718;40.778;21.400;2023-12-20T00:25:15;94273.92;;;0.62;71.31
84492;BME280;74718;40.778;21.400;2023-12-20T00:27:40;94272.83;;;0.49;71.20
84492;BME280;74718;40.778;21.400;2023-12-20T00:30:07;94266.55;;;0.38;71.46
84492;BME280;74718;40.778;21.400;2023-12-20T00:32:33;94261.59;;;0.33;71.73
84492;BME280;74718;40.778;21.400;2023-12-20T00:34:58;94256.58;;;0.37;71.61
84492;BME280;74718;40.778;21.400;2023-12-20T00:37:24;94251.52;;;0.38;71.63
84492;BME280;74718;40.778;21.400;2023-12-20T00:39:49;94256.38;;;0.42;71.68
84492;BME280;74718;40.778;21.400;2023-12-20T00:42:15;94255.41;;;0.44;71.91
84492;BME280;74718;40.778;21.400;2023-12-20T00:44:40;94255.14;;;0.45;71.81
84492;BME280;74718;40.778;21.400;2023-12-20T00:47:06;94254.00;;;0.48;71.88
84492;BME280;74718;40.778;21.400;2023-12-20T00:49:31;94252.49;;;0.48;71.85
84492;BME280;74718;40.778;21.400;2023-12-20T00:51:56;94250.67;;;0.43;71.89
84492;BME280;74718;40.778;21.400;2023-12-20T00:54:22;94249.52;;;0.40;71.86
84492;BME280;74718;40.778;21.400;2023-12-20T00:56:47;94247.59;;;0.44;71.91
84492;BME280;74718;40.778;21.400;2023-12-20T00:59:13;94246.77;;;0.47;72.16
84492;BME280;74718;40.778;21.400;2023-12-20T01:01:40;94243.80;;;0.44;72.28
84492;BME280;74718;40.778;21.400;2023-12-20T01:04:05;94240.73;;;0.40;72.54
84492;BME280;74718;40.778;21.400;2023-12-20T01:06:31;94240.38;;;0.36;72.34
84492;BME280;74718;40.778;21.400;2023-12-20T01:08:56;94235.81;;;0.31;72.07
84492;BME280;74718;40.778;21.400;2023-12-20T01:11:21;94229.88;;;0.25;71.87
84492;BME280;74718;40.778;21.400;2023-12-20T01:13:47;94224.05;;;0.17;71.88
84492;BME280;74718;40.778;21.400;2023-12-20T01:16:13;94220.13;;;0.14;71.81
84492;BME280;74718;40.778;21.400;2023-12-20T01:18:38;94216.86;;;0.10;71.85
84492;BME280;74718;40.778;21.400;2023-12-20T01:21:04;94217.10;;;0.11;72.21
84492;BME280;74718;40.778;21.400;2023-12-20T01:23:30;94219.09;;;0.09;72.09
84492;BME280;74718;40.778;21.400;2023-12-20T01:25:56;94215.38;;;0.04;72.25
84492;BME280;74718;40.778;21.400;2023-12-20T01:28:21;94217.27;;;0.00;72.57
84492;BME280;74718;40.778;21.400;2023-12-20T01:30:47;94213.48;;;-0.08;72.63
84492;BME280;74718;40.778;21.400;2023-12-20T01:33:13;94209.59;;;-0.16;72.49
84492;BME280;74718;40.778;21.400;2023-12-20T01:35:38;94207.92;;;-0.22;72.56
84492;BME280;74718;40.778;21.400;2023-12-20T01:38:04;94202.77;;;-0.21;72.55
84492;BME280;74718;40.778;21.400;2023-12-20T01:40:29;94201.97;;;-0.13;72.69
84492;BME280;74718;40.778;21.400;2023-12-20T01:43:02;94199.73;;;-0.07;72.73
84492;BME280;74718;40.778;21.400;2023-12-20T01:45:30;94194.22;;;0.04;72.92
84492;BME280;74718;40.778;21.400;2023-12-20T01:47:57;94192.94;;;0.11;72.96
84492;BME280;74718;40.778;21.400;2023-12-20T01:50:24;94188.02;;;0.08;72.73
84492;BME280;74718;40.778;21.400;2023-12-20T01:52:50;94187.91;;;0.07;72.38
84492;BME280;74718;40.778;21.400;2023-12-20T01:55:19;94184.13;;;0.08;72.38
84492;BME280;74718;40.778;21.400;2023-12-20T01:57:45;94181.09;;;0.10;72.36
84492;BME280;74718;40.778;21.400;2023-12-20T02:00:13;94182.96;;;0.14;72.14
84492;BME280;74718;40.778;21.400;2023-12-20T02:02:40;94180.64;;;0.16;72.19
84492;BME280;74718;40.778;21.400;2023-12-20T02:05:07;94180.11;;;0.19;71.76
84492;BME280;74718;40.778;21.400;2023-12-20T02:07:33;94176.59;;;0.18;71.98
84492;BME280;74718;40.778;21.400;2023-12-20T02:10:00;94174.08;;;0.17;71.93
84492;BME280;74718;40.778;21.400;2023-12-20T02:12:26;94170.09;;;0.11;71.81
84492;BME280;74718;40.778;21.400;2023-12-20T02:14:52;94168.30;;;0.02;71.87
84492;BME280;74718;40.778;21.400;2023-12-20T02:17:19;94163.58;;;-0.07;71.96
84492;BME280;74718;40.778;21.400;2023-12-20T02:19:45;94159.59;;;-0.12;72.07
84492;BME280;74718;40.778;21.400;2023-12-20T02:22:11;94156.33;;;-0.15;72.04
84492;BME280;74718;40.778;21.400;2023-12-20T02:24:37;94153.85;;;-0.15;72.17
84492;BME280;74718;40.778;21.400;2023-12-20T02:27:03;94149.81;;;-0.19;72.09
84492;BME280;74718;40.778;21.400;2023-12-20T02:29:31;94147.77;;;-0.25;72.32
84492;BME280;74718;40.778;21.400;2023-12-20T02:31:57;94143.33;;;-0.32;72.33
84492;BME280;74718;40.778;21.400;2023-12-20T02:34:22;94139.27;;;-0.36;72.58
84492;BME280;74718;40.778;21.400;2023-12-20T02:36:48;94134.29;;;-0.36;72.41
84492;BME280;74718;40.778;21.400;2023-12-20T02:39:14;94130.98;;;-0.35;72.63
84492;BME280;74718;40.778;21.400;2023-12-20T02:41:39;94130.34;;;-0.34;72.81
84492;BME280;74718;40.778;21.400;2023-12-20T02:44:05;94129.84;;;-0.31;72.81
84492;BME280;74718;40.778;21.400;2023-12-20T02:46:30;94129.33;;;-0.25;72.81
84492;BME280;74718;40.778;21.400;2023-12-20T02:48:55;94125.54;;;-0.19;72.80
84492;BME280;74718;40.778;21.400;2023-12-20T02:51:21;94127.94;;;-0.13;72.69
84492;BME280;74718;40.778;21.400;2023-12-20T02:53:46;94123.43;;;-0.06;72.63
84492;BME280;74718;40.778;21.400;2023-12-20T02:56:12;94124.91;;;-0.05;72.62
84492;BME280;74718;40.778;21.400;2023-12-20T02:58:38;94123.55;;;-0.04;72.31
84492;BME280;74718;40.778;21.400;2023-12-20T03:01:04;94123.00;;;-0.02;72.11
84492;BME280;74718;40.778;21.400;2023-12-20T03:03:29;94120.83;;;-0.01;72.05
84492;BME280;74718;40.778;21.400;2023-12-20T03:05:55;94118.20;;;0.02;72.12
84492;BME280;74718;40.778;21.400;2023-12-20T03:08:20;94113.59;;;0.05;71.74
84492;BME280;74718;40.778;21.400;2023-12-20T03:10:46;94121.67;;;-0.01;71.73
84492;BME280;74718;40.778;21.400;2023-12-20T03:13:11;94120.16;;;-0.01;72.02
84492;BME280;74718;40.778;21.400;2023-12-20T03:15:37;94118.69;;;0.03;72.20
84492;BME280;74718;40.778;21.400;2023-12-20T03:18:03;94120.76;;;-0.01;72.25
84492;BME280;74718;40.778;21.400;2023-12-20T03:20:29;94117.17;;;-0.08;72.40
84492;BME280;74718;40.778;21.400;2023-12-20T03:22:56;94112.35;;;-0.15;72.39
84492;BME280;74718;40.778;21.400;2023-12-20T03:25:21;94108.36;;;-0.18;72.06
84492;BME280;74718;40.778;21.400;2023-12-20T03:27:47;94107.80;;;-0.23;72.12
84492;BME280;74718;40.778;21.400;2023-12-20T03:30:12;94109.58;;;-0.31;72.18
84492;BME280;74718;40.778;21.400;2023-12-20T03:32:38;94107.98;;;-0.38;72.23
84492;BME280;74718;40.778;21.400;2023-12-20T03:35:04;94108.98;;;-0.40;72.27
84492;BME280;74718;40.778;21.400;2023-12-20T03:37:30;94107.00;;;-0.46;71.98
84492;BME280;74718;40.778;21.400;2023-12-20T03:39:55;94104.19;;;-0.52;72.16
84492;BME280;74718;40.778;21.400;2023-12-20T03:42:21;94104.73;;;-0.56;72.17
84492;BME280;74718;40.778;21.400;2023-12-20T03:44:46;94102.86;;;-0.58;72.50
84492;BME280;74718;40.778;21.400;2023-12-20T03:47:12;94102.55;;;-0.51;72.54
84492;BME280;74718;40.778;21.400;2023-12-20T03:49:37;94100.34;;;-0.43;72.56
84492;BME280;74718;40.778;21.400;2023-12-20T03:52:04;94093.20;;;-0.37;72.51
84492;BME280;74718;40.778;21.400;2023-12-20T03:54:30;94090.45;;;-0.39;72.58
84492;BME280;74718;40.778;21.400;2023-12-20T03:56:55;94086.79;;;-0.44;72.49
84492;BME280;74718;40.778;21.400;2023-12-20T03:59:21;94079.73;;;-0.44;72.57
84492;BME280;74718;40.778;21.400;2023-12-20T04:01:46;94075.04;;;-0.42;72.35
84492;BME280;74718;40.778;21.400;2023-12-20T04:04:12;94071.81;;;-0.44;72.26
84492;BME280;74718;40.778;21.400;2023-12-20T04:06:38;94068.98;;;-0.45;72.26
84492;BME280;74718;40.778;21.400;2023-12-20T04:09:04;94067.15;;;-0.42;72.35
84492;BME280;74718;40.778;21.400;2023-12-20T04:11:29;94065.01;;;-0.47;72.48
84492;BME280;74718;40.778;21.400;2023-12-20T04:13:55;94060.01;;;-0.50;72.59
84492;BME280;74718;40.778;21.400;2023-12-20T04:16:21;94060.14;;;-0.44;72.15
84492;BME280;74718;40.778;21.400;2023-12-20T04:18:46;94057.91;;;-0.41;72.10
84492;BME280;74718;40.778;21.400;2023-12-20T04:21:11;94058.34;;;-0.39;72.07
84492;BME280;74718;40.778;21.400;2023-12-20T04:23:37;94054.59;;;-0.44;72.12
84492;BME280;74718;40.778;21.400;2023-12-20T04:26:03;94056.36;;;-0.47;72.29
84492;BME280;74718;40.778;21.400;2023-12-20T04:28:28;94056.19;;;-0.46;72.08
84492;BME280;74718;40.778;21.400;2023-12-20T04:30:56;94053.73;;;-0.48;71.64
84492;BME280;74718;40.778;21.400;2023-12-20T04:33:22;94054.03;;;-0.50;71.91
84492;BME280;74718;40.778;21.400;2023-12-20T04:35:48;94051.80;;;-0.54;71.98
84492;BME280;74718;40.778;21.400;2023-12-20T04:38:13;94054.42;;;-0.57;72.14
84492;BME280;74718;40.778;21.400;2023-12-20T04:40:39;94056.17;;;-0.51;72.13
84492;BME280;74718;40.778;21.400;2023-12-20T04:43:07;94055.36;;;-0.43;72.14
84492;BME280;74718;40.778;21.400;2023-12-20T04:45:33;94054.08;;;-0.36;72.31
84492;BME280;74718;40.778;21.400;2023-12-20T04:47:58;94048.14;;;-0.34;72.21
84492;BME280;74718;40.778;21.400;2023-12-20T04:50:23;94052.77;;;-0.30;72.17
84492;BME280;74718;40.778;21.400;2023-12-20T04:52:49;94054.76;;;-0.26;71.93
84492;BME280;74718;40.778;21.400;2023-12-20T04:55:15;94047.98;;;-0.22;71.81
84492;BME280;74718;40.778;21.400;2023-12-20T04:57:40;94054.56;;;-0.26;71.64
84492;BME280;74718;40.778;21.400;2023-12-20T05:00:06;94057.27;;;-0.28;71.55
84492;BME280;74718;40.778;21.400;2023-12-20T05:02:34;94055.44;;;-0.30;71.49
84492;BME280;74718;40.778;21.400;2023-12-20T05:05:00;94055.48;;;-0.29;71.50
84492;BME280;74718;40.778;21.400;2023-12-20T05:07:25;94049.78;;;-0.27;71.18
84492;BME280;74718;40.778;21.400;2023-12-20T05:09:51;94051.81;;;-0.28;71.14
84492;BME280;74718;40.778;21.400;2023-12-20T05:12:16;94046.52;;;-0.27;71.07
84492;BME280;74718;40.778;21.400;2023-12-20T05:14:42;94042.89;;;-0.29;70.88
84492;BME280;74718;40.778;21.400;2023-12-20T05:17:07;94048.77;;;-0.34;70.70
84492;BME280;74718;40.778;21.400;2023-12-20T05:19:33;94048.83;;;-0.42;70.49
84492;BME280;74718;40.778;21.400;2023-12-20T05:22:01;94051.44;;;-0.49;70.53
84492;BME280;74718;40.778;21.400;2023-12-20T05:24:27;94046.14;;;-0.54;70.85
84492;BME280;74718;40.778;21.400;2023-12-20T05:26:53;94047.83;;;-0.53;70.97
84492;BME280;74718;40.778;21.400;2023-12-20T05:29:19;94046.50;;;-0.49;70.86
84492;BME280;74718;40.778;21.400;2023-12-20T05:31:44;94039.02;;;-0.50;71.18
84492;BME280;74718;40.778;21.400;2023-12-20T05:34:10;94034.48;;;-0.56;71.82
84492;BME280;74718;40.778;21.400;2023-12-20T05:36:36;94040.96;;;-0.57;71.89
84492;BME280;74718;40.778;21.400;2023-12-20T05:39:02;94042.08;;;-0.52;71.53
84492;BME280;74718;40.778;21.400;2023-12-20T05:41:29;94038.81;;;-0.51;71.71
84492;BME280;74718;40.778;21.400;2023-12-20T05:43:55;94032.09;;;-0.51;71.82
84492;BME280;74718;40.778;21.400;2023-12-20T05:46:20;94035.19;;;-0.50;71.99
84492;BME280;74718;40.778;21.400;2023-12-20T05:48:47;94031.33;;;-0.44;72.14
84492;BME280;74718;40.778;21.400;2023-12-20T05:51:14;94029.44;;;-0.50;72.31
84492;BME280;74718;40.778;21.400;2023-12-20T05:53:39;94029.45;;;-0.59;72.60
84492;BME280;74718;40.778;21.400;2023-12-20T05:56:05;94019.17;;;-0.58;72.66
84492;BME280;74718;40.778;21.400;2023-12-20T05:58:32;94019.22;;;-0.58;72.40
84492;BME280;74718;40.778;21.400;2023-12-20T06:00:58;94022.11;;;-0.69;72.57
84492;BME280;74718;40.778;21.400;2023-12-20T06:03:24;94021.40;;;-0.78;73.24
84492;BME280;74718;40.778;21.400;2023-12-20T06:05:50;94020.63;;;-0.80;73.29
84492;BME280;74718;40.778;21.400;2023-12-20T06:08:16;94010.85;;;-0.79;73.13
84492;BME280;74718;40.778;21.400;2023-12-20T06:10:41;94006.07;;;-0.77;73.26
84492;BME280;74718;40.778;21.400;2023-12-20T06:13:07;94010.45;;;-0.77;73.14
84492;BME280;74718;40.778;21.400;2023-12-20T06:15:32;94011.37;;;-0.79;72.76
84492;BME280;74718;40.778;21.400;2023-12-20T06:17:58;94014.77;;;-0.81;72.25
84492;BME280;74718;40.778;21.400;2023-12-20T06:20:24;94015.80;;;-0.86;72.14
84492;BME280;74718;40.778;21.400;2023-12-20T06:22:50;94013.73;;;-0.91;72.03
84492;BME280;74718;40.778;21.400;2023-12-20T06:25:16;94016.40;;;-0.93;72.62
84492;BME280;74718;40.778;21.400;2023-12-20T06:27:42;94016.31;;;-0.91;72.19
84492;BME280;74718;40.778;21.400;2023-12-20T06:30:07;94013.31;;;-0.96;72.15
84492;BME280;74718;40.778;21.400;2023-12-20T06:32:36;94013.79;;;-1.01;72.86
84492;BME280;74718;40.778;21.400;2023-12-20T06:35:04;94007.94;;;-0.96;73.20
84492;BME280;74718;40.778;21.400;2023-12-20T06:37:30;94007.45;;;-0.88;73.62
84492;BME280;74718;40.778;21.400;2023-12-20T06:39:55;94010.11;;;-0.87;73.57
84492;BME280;74718;40.778;21.400;2023-12-20T06:42:22;94003.45;;;-0.80;73.38
84492;BME280;74718;40.778;21.400;2023-12-20T06:44:48;93997.63;;;-0.78;73.53
84492;BME280;74718;40.778;21.400;2023-12-20T06:47:13;93992.91;;;-0.80;73.41
84492;BME280;74718;40.778;21.400;2023-12-20T06:49:39;93989.50;;;-0.74;73.25
84492;BME280;74718;40.778;21.400;2023-12-20T06:52:05;93991.05;;;-0.68;72.72
84492;BME280;74718;40.778;21.400;2023-12-20T06:54:31;93988.78;;;-0.64;72.45
84492;BME280;74718;40.778;21.400;2023-12-20T06:56:59;93986.71;;;-0.62;72.16
84492;BME280;74718;40.778;21.400;2023-12-20T06:59:24;93987.08;;;-0.56;72.17
84492;BME280;74718;40.778;21.400;2023-12-20T07:01:51;93991.52;;;-0.50;72.09
84492;BME280;74718;40.778;21.400;2023-12-20T07:04:16;93986.58;;;-0.45;72.20
84492;BME280;74718;40.778;21.400;2023-12-20T07:06:46;93987.84;;;-0.24;72.22
84492;BME280;74718;40.778;21.400;2023-12-20T07:09:13;93984.87;;;0.01;71.71
84492;BME280;74718;40.778;21.400;2023-12-20T07:11:39;93980.20;;;0.25;71.26
84492;BME280;74718;40.778;21.400;2023-12-20T07:14:04;93981.58;;;0.40;70.70
84492;BME280;74718;40.778;21.400;2023-12-20T07:16:30;93975.31;;;0.52;70.37
84492;BME280;74718;40.778;21.400;2023-12-20T07:18:55;93977.16;;;0.63;69.99
84492;BME280;74718;40.778;21.400;2023-12-20T08:51:14;93952.20;;;11.56;41.77
84492;BME280;74718;40.778;21.400;2023-12-20T08:53:39;93946.79;;;11.61;42.12
84492;BME280;74718;40.778;21.400;2023-12-20T08:56:05;93941.14;;;11.48;41.49
84492;BME280;74718;40.778;21.400;2023-12-20T08:58:31;93935.58;;;11.50;41.98
84492;BME280;74718;40.778;21.400;2023-12-20T09:00:56;93931.55;;;11.52;40.58
84492;BME280;74718;40.778;21.400;2023-12-20T09:03:22;93926.14;;;10.97;39.28
84492;BME280;74718;40.778;21.400;2023-12-20T09:05:48;93924.46;;;10.73;40.42
84492;BME280;74718;40.778;21.400;2023-12-20T09:08:13;93928.02;;;10.31;40.80
84492;BME280;74718;40.778;21.400;2023-12-20T09:10:39;93928.97;;;10.12;41.26
84492;BME280;74718;40.778;21.400;2023-12-20T09:13:04;93920.83;;;9.94;42.13
84492;BME280;74718;40.778;21.400;2023-12-20T09:15:30;93913.46;;;9.74;41.82
84492;BME280;74718;40.778;21.400;2023-12-20T09:17:55;93915.91;;;9.24;42.73
84492;BME280;74718;40.778;21.400;2023-12-20T09:20:21;93912.88;;;8.44;44.20
84492;BME280;74718;40.778;21.400;2023-12-20T09:22:48;93912.42;;;7.77;46.10
84492;BME280;74718;40.778;21.400;2023-12-20T09:25:14;93910.79;;;7.17;47.63
84492;BME280;74718;40.778;21.400;2023-12-20T09:27:41;93908.80;;;6.69;49.25
84492;BME280;74718;40.778;21.400;2023-12-20T09:30:07;93902.27;;;6.31;50.32
84492;BME280;74718;40.778;21.400;2023-12-20T09:32:32;93891.30;;;5.86;51.35
84492;BME280;74718;40.778;21.400;2023-12-20T09:34:58;93889.80;;;5.50;52.65
84492;BME280;74718;40.778;21.400;2023-12-20T09:37:26;93887.73;;;5.22;53.73
84492;BME280;74718;40.778;21.400;2023-12-20T09:39:51;93885.27;;;4.96;54.81
84492;BME280;74718;40.778;21.400;2023-12-20T09:42:23;93879.64;;;4.94;54.97
84492;BME280;74718;40.778;21.400;2023-12-20T09:44:50;93873.75;;;5.10;54.91
84492;BME280;74718;40.778;21.400;2023-12-20T09:47:15;93863.50;;;5.53;53.79
84492;BME280;74718;40.778;21.400;2023-12-20T09:49:44;93858.63;;;6.17;52.46
84492;BME280;74718;40.778;21.400;2023-12-20T09:52:11;93857.84;;;6.58;51.25
84492;BME280;74718;40.778;21.400;2023-12-20T09:54:38;93847.88;;;6.77;51.26
84492;BME280;74718;40.778;21.400;2023-12-20T09:57:04;93839.39;;;7.01;51.14
84492;BME280;74718;40.778;21.400;2023-12-20T09:59:29;93836.99;;;7.22;51.00
84492;BME280;74718;40.778;21.400;2023-12-20T10:01:55;93826.94;;;7.46;50.67
84492;BME280;74718;40.778;21.400;2023-12-20T10:04:22;93820.42;;;7.56;48.74
84492;BME280;74718;40.778;21.400;2023-12-20T10:06:47;93818.83;;;7.18;49.85
84492;BME280;74718;40.778;21.400;2023-12-20T10:09:13;93815.83;;;6.80;50.84
84492;BME280;74718;40.778;21.400;2023-12-20T10:11:39;93812.56;;;6.42;51.74
84492;BME280;74718;40.778;21.400;2023-12-20T10:14:06;93808.70;;;6.08;52.82
84492;BME280;74718;40.778;21.400;2023-12-20T10:16:32;93800.94;;;5.76;54.11
84492;BME280;74718;40.778;21.400;2023-12-20T10:18:59;93804.87;;;5.76;54.29
84492;BME280;74718;40.778;21.400;2023-12-20T10:21:25;93803.94;;;5.72;54.41
84492;BME280;74718;40.778;21.400;2023-12-20T10:23:55;93799.41;;;5.32;55.50
84492;BME280;74718;40.778;21.400;2023-12-20T10:26:22;93796.52;;;5.01;56.86
84492;BME280;74718;40.778;21.400;2023-12-20T10:28:54;93790.96;;;4.88;57.52
84492;BME280;74718;40.778;21.400;2023-12-20T10:31:30;93785.05;;;4.76;58.02
84492;BME280;74718;40.778;21.400;2023-12-20T10:34:00;93785.25;;;4.21;59.84
84492;BME280;74718;40.778;21.400;2023-12-20T10:36:28;93774.40;;;4.39;59.14
84492;BME280;74718;40.778;21.400;2023-12-20T10:38:54;93771.31;;;5.12;57.90
84492;BME280;74718;40.778;21.400;2023-12-20T10:41:29;93767.01;;;5.22;57.06
84492;BME280;74718;40.778;21.400;2023-12-20T10:43:59;93760.13;;;5.46;57.36
84492;BME280;74718;40.778;21.400;2023-12-20T10:46:24;93756.63;;;6.39;55.40
84492;BME280;74718;40.778;21.400;2023-12-20T10:48:53;93755.85;;;6.50;53.97
84492;BME280;74718;40.778;21.400;2023-12-20T10:51:20;93755.98;;;6.30;54.40
84492;BME280;74718;40.778;21.400;2023-12-20T10:53:47;93751.67;;;6.44;53.90
84492;BME280;74718;40.778;21.400;2023-12-20T10:56:16;93753.83;;;6.30;54.38
84492;BME280;74718;40.778;21.400;2023-12-20T10:58:49;93752.35;;;5.86;55.23
84492;BME280;74718;40.778;21.400;2023-12-20T11:01:16;93749.75;;;5.84;55.74
84492;BME280;74718;40.778;21.400;2023-12-20T11:03:49;93750.00;;;5.96;55.65
84492;BME280;74718;40.778;21.400;2023-12-20T11:06:51;93745.70;;;5.94;55.64
84492;BME280;74718;40.778;21.400;2023-12-20T11:09:35;93744.13;;;5.96;55.55
84492;BME280;74718;40.778;21.400;2023-12-20T11:12:28;93740.71;;;6.05;55.52
84492;BME280;74718;40.778;21.400;2023-12-20T11:14:58;93740.56;;;6.01;55.40
84492;BME280;74718;40.778;21.400;2023-12-20T11:17:28;93738.69;;;5.96;55.85
84492;BME280;74718;40.778;21.400;2023-12-20T11:22:27;93727.42;;;5.73;56.51
84492;BME280;74718;40.778;21.400;2023-12-20T11:24:53;93722.91;;;5.66;56.65
84492;BME280;74718;40.778;21.400;2023-12-20T11:27:21;93722.40;;;5.74;57.44
84492;BME280;74718;40.778;21.400;2023-12-20T11:29:54;93719.16;;;5.84;56.56
84492;BME280;74718;40.778;21.400;2023-12-20T11:34:57;93713.10;;;5.12;58.53
84492;BME280;74718;40.778;21.400;2023-12-20T11:37:29;93711.17;;;5.03;59.41
84492;BME280;74718;40.778;21.400;2023-12-20T11:39:55;93709.80;;;4.93;59.11
84492;BME280;74718;40.778;21.400;2023-12-20T11:42:24;93709.38;;;4.83;59.67
84492;BME280;74718;40.778;21.400;2023-12-20T11:44:50;93707.23;;;4.83;59.76
84492;BME280;74718;40.778;21.400;2023-12-20T11:47:16;93700.35;;;4.67;60.63
84492;BME280;74718;40.778;21.400;2023-12-20T11:49:46;93693.16;;;4.65;60.45
84492;BME280;74718;40.778;21.400;2023-12-20T11:52:12;93687.36;;;4.73;60.09
84492;BME280;74718;40.778;21.400;2023-12-20T11:54:38;93677.89;;;4.76;59.73
84492;BME280;74718;40.778;21.400;2023-12-20T11:57:04;93676.60;;;4.91;60.23
84492;BME280;74718;40.778;21.400;2023-12-20T11:59:30;93673.58;;;5.42;59.19
84492;BME280;74718;40.778;21.400;2023-12-20T12:01:56;93675.34;;;5.61;57.81
84492;BME280;74718;40.778;21.400;2023-12-20T12:04:26;93676.14;;;5.63;58.31
84492;BME280;74718;40.778;21.400;2023-12-20T12:06:53;93667.40;;;5.40;58.15
84492;BME280;74718;40.778;21.400;2023-12-20T12:43:07;93520.15;;;9.53;48.76
84492;BME280;74718;40.778;21.400;2023-12-20T12:45:32;93516.71;;;7.93;51.79
84492;BME280;74718;40.778;21.400;2023-12-20T12:47:58;93510.53;;;7.01;53.62
84492;BME280;74718;40.778;21.400;2023-12-20T12:50:23;93509.34;;;6.32;55.04
84492;BME280;74718;40.778;21.400;2023-12-20T12:52:48;93508.70;;;5.75;56.07
84492;BME280;74718;40.778;21.400;2023-12-20T12:55:14;93504.54;;;5.23;57.03
84492;BME280;74718;40.778;21.400;2023-12-20T12:57:39;93507.43;;;4.86;57.91
84492;BME280;74718;40.778;21.400;2023-12-20T13:00:06;93509.46;;;4.48;58.82
84492;BME280;74718;40.778;21.400;2023-12-20T13:02:34;93509.46;;;4.14;59.68
84492;BME280;74718;40.778;21.400;2023-12-20T13:04:59;93506.64;;;3.92;60.28
84492;BME280;74718;40.778;21.400;2023-12-20T13:07:26;93502.66;;;3.78;60.46
84492;BME280;74718;40.778;21.400;2023-12-20T13:09:51;93500.75;;;3.68;61.24
84492;BME280;74718;40.778;21.400;2023-12-20T13:12:17;93503.73;;;3.61;61.79
84492;BME280;74718;40.778;21.400;2023-12-20T13:14:42;93503.05;;;3.49;62.26
84492;BME280;74718;40.778;21.400;2023-12-20T13:17:08;93498.75;;;3.39;62.41
84492;BME280;74718;40.778;21.400;2023-12-20T13:19:33;93496.31;;;3.34;62.98
84492;BME280;74718;40.778;21.400;2023-12-20T13:21:59;93489.59;;;3.40;63.45
84492;BME280;74718;40.778;21.400;2023-12-20T13:24:25;93490.67;;;3.39;63.32
84492;BME280;74718;40.778;21.400;2023-12-20T13:26:50;93487.38;;;3.25;63.99
84492;BME280;74718;40.778;21.400;2023-12-20T13:29:15;93485.64;;;3.20;64.23
84492;BME280;74718;40.778;21.400;2023-12-20T13:31:42;93488.17;;;3.15;64.25
84492;BME280;74718;40.778;21.400;2023-12-20T13:34:07;93488.70;;;3.01;64.94
84492;BME280;74718;40.778;21.400;2023-12-20T13:36:33;93490.75;;;2.83;64.77
84492;BME280;74718;40.778;21.400;2023-12-20T13:38:58;93484.33;;;2.68;65.01
84492;BME280;74718;40.778;21.400;2023-12-20T13:41:24;93484.65;;;2.54;65.26
84492;BME280;74718;40.778;21.400;2023-12-20T13:43:49;93484.11;;;2.40;65.60
84492;BME280;74718;40.778;21.400;2023-12-20T13:46:15;93488.21;;;2.26;66.00
84492;BME280;74718;40.778;21.400;2023-12-20T13:48:41;93491.07;;;2.14;65.98
84492;BME280;74718;40.778;21.400;2023-12-20T13:51:06;93485.86;;;1.97;66.38
84492;BME280;74718;40.778;21.400;2023-12-20T13:53:32;93483.60;;;1.82;66.61
84492;BME280;74718;40.778;21.400;2023-12-20T13:55:58;93481.43;;;1.70;67.37
84492;BME280;74718;40.778;21.400;2023-12-20T13:58:25;93482.16;;;1.63;67.68
84492;BME280;74718;40.778;21.400;2023-12-20T14:00:51;93485.53;;;1.62;67.87
84492;BME280;74718;40.778;21.400;2023-12-20T14:03:16;93488.56;;;1.65;68.52
84492;BME280;74718;40.778;21.400;2023-12-20T14:05:42;93484.70;;;1.62;68.37
84492;BME280;74718;40.778;21.400;2023-12-20T14:08:07;93479.09;;;1.60;68.50
84492;BME280;74718;40.778;21.400;2023-12-20T14:10:33;93473.36;;;1.54;68.99
84492;BME280;74718;40.778;21.400;2023-12-20T14:12:59;93473.59;;;1.52;69.29
84492;BME280;74718;40.778;21.400;2023-12-20T14:15:24;93473.47;;;1.52;69.37
84492;BME280;74718;40.778;21.400;2023-12-20T14:17:50;93472.92;;;1.53;69.89
84492;BME280;74718;40.778;21.400;2023-12-20T14:20:16;93476.25;;;1.58;69.79
84492;BME280;74718;40.778;21.400;2023-12-20T14:22:43;93474.56;;;1.55;68.93
84492;BME280;74718;40.778;21.400;2023-12-20T14:25:12;93474.16;;;1.38;69.73
84492;BME280;74718;40.778;21.400;2023-12-20T14:27:39;93471.15;;;1.32;70.35
84492;BME280;74718;40.778;21.400;2023-12-20T14:30:06;93474.40;;;1.36;70.55
84492;BME280;74718;40.778;21.400;2023-12-20T14:32:34;93472.04;;;1.31;69.70
84492;BME280;74718;40.778;21.400;2023-12-20T14:35:02;93466.23;;;1.23;70.99
84492;BME280;74718;40.778;21.400;2023-12-20T14:37:29;93469.36;;;1.24;71.09
84492;BME280;74718;40.778;21.400;2023-12-20T14:39:55;93467.30;;;1.28;70.64
84492;BME280;74718;40.778;21.400;2023-12-20T14:42:20;93464.99;;;1.24;70.68
84492;BME280;74718;40.778;21.400;2023-12-20T14:44:47;93460.55;;;1.15;70.85
84492;BME280;74718;40.778;21.400;2023-12-20T14:47:13;93461.60;;;1.06;70.92
84492;BME280;74718;40.778;21.400;2023-12-20T14:49:41;93456.15;;;1.09;71.87
84492;BME280;74718;40.778;21.400;2023-12-20T14:52:08;93460.39;;;1.10;71.41
84492;BME280;74718;40.778;21.400;2023-12-20T14:54:36;93458.41;;;1.14;71.76
84492;BME280;74718;40.778;21.400;2023-12-20T14:57:02;93453.77;;;1.23;71.79
84492;BME280;74718;40.778;21.400;2023-12-20T14:59:28;93452.42;;;1.31;71.79